createdAt,value
2018-03-21T00:00:07.129Z,12.20
2018-03-21T00:03:08.391Z,4.30
2018-03-21T00:06:09.655Z,7.30
2018-03-21T00:09:10.932Z,5.47
2018-03-21T00:12:12.925Z,5.97
2018-03-21T00:15:14.210Z,8.90
2018-03-21T00:18:15.437Z,10.00
2018-03-21T00:21:17.419Z,7.57
2018-03-21T00:24:19.408Z,7.30
2018-03-21T00:27:21.430Z,6.87
2018-03-21T00:30:22.687Z,6.63
2018-03-21T00:33:23.930Z,15.50
2018-03-21T00:36:25.199Z,8.03
2018-03-21T00:39:26.474Z,4.80
2018-03-21T00:42:27.761Z,6.10
2018-03-21T00:45:29.024Z,5.17
2018-03-21T00:48:30.282Z,10.30
2018-03-21T00:51:31.516Z,9.90
2018-03-21T00:54:32.779Z,5.50
2018-03-21T00:57:34.039Z,5.80
2018-03-21T01:00:35.306Z,6.07
2018-03-21T01:03:36.567Z,7.30
2018-03-21T01:06:37.815Z,7.93
2018-03-21T01:09:39.089Z,4.03
2018-03-21T01:12:40.321Z,12.10
2018-03-21T01:15:42.314Z,5.60
2018-03-21T01:18:43.563Z,2.77
2018-03-21T01:21:45.562Z,8.30
2018-03-21T01:24:46.810Z,4.57
2018-03-21T01:27:48.818Z,5.73
2018-03-21T01:30:50.078Z,7.03
2018-03-21T01:33:51.309Z,4.10
2018-03-21T01:36:53.347Z,10.47
2018-03-21T01:39:54.611Z,4.27
2018-03-21T01:42:55.890Z,9.80
2018-03-21T01:45:57.154Z,3.90
2018-03-21T01:48:58.406Z,15.73
2018-03-21T01:51:59.679Z,7.80
2018-03-21T01:55:00.917Z,7.27
2018-03-21T01:58:02.206Z,6.23
2018-03-21T02:01:03.470Z,9.13
2018-03-21T02:04:04.754Z,4.67
2018-03-21T02:07:06.029Z,5.83
2018-03-21T02:10:08.016Z,4.97
2018-03-21T02:13:09.980Z,8.07
2018-03-21T02:16:11.230Z,8.07
2018-03-21T02:19:12.504Z,8.93
2018-03-21T02:22:13.744Z,13.93
2018-03-21T02:25:15.025Z,5.53
2018-03-21T02:28:16.278Z,8.77
2018-03-21T02:31:17.499Z,6.20
2018-03-21T02:34:18.778Z,7.50
2018-03-21T02:37:20.008Z,5.27
2018-03-21T02:40:22.025Z,6.00
2018-03-21T02:43:23.283Z,8.37
2018-03-21T02:46:24.543Z,7.43
2018-03-21T02:49:25.825Z,5.60
2018-03-21T02:52:27.096Z,5.27
2018-03-21T02:55:28.357Z,6.47
2018-03-21T02:58:29.624Z,5.13
2018-03-21T03:01:30.872Z,9.50
2018-03-21T03:04:32.165Z,7.50
2018-03-21T03:07:33.410Z,4.80
2018-03-21T03:10:34.690Z,4.07
2018-03-21T03:13:35.959Z,5.07
2018-03-21T03:16:37.228Z,7.30
2018-03-21T03:19:38.526Z,4.47
2018-03-21T03:22:39.815Z,6.60
2018-03-21T03:25:41.094Z,9.23
2018-03-21T03:28:42.339Z,5.10
2018-03-21T03:31:43.620Z,17.87
2018-03-21T03:34:44.893Z,7.40
2018-03-21T03:37:46.151Z,3.80
2018-03-21T03:40:47.419Z,7.53
2018-03-21T03:43:48.680Z,4.10
2018-03-21T03:46:49.954Z,6.57
2018-03-21T03:49:51.195Z,5.93
2018-03-21T03:52:52.430Z,6.13
2018-03-21T03:55:53.656Z,11.07
2018-03-21T03:58:55.642Z,8.03
2018-03-21T04:01:57.644Z,4.40
2018-03-21T04:04:58.887Z,9.57
2018-03-21T04:08:00.855Z,8.20
2018-03-21T04:11:02.139Z,5.00
2018-03-21T04:14:03.435Z,6.27
2018-03-21T04:17:04.693Z,4.53
2018-03-21T04:20:05.958Z,6.80
2018-03-21T04:23:07.214Z,7.27
2018-03-21T04:26:08.446Z,7.70
2018-03-21T04:29:10.418Z,11.63
2018-03-21T04:32:11.642Z,3.20
2018-03-21T04:35:12.888Z,7.37
2018-03-21T04:38:14.122Z,14.40
2018-03-21T04:41:16.137Z,15.33
2018-03-21T04:44:17.855Z,6.27
2018-03-21T04:47:19.157Z,7.43
2018-03-21T04:50:20.407Z,7.70
2018-03-21T04:53:21.667Z,6.40
2018-03-21T04:56:23.663Z,8.27
2018-03-21T04:59:24.923Z,7.67
2018-03-21T05:02:26.180Z,9.77
2018-03-21T05:05:27.449Z,8.00
2018-03-21T05:08:28.694Z,13.83
2018-03-21T05:11:30.666Z,11.80
2018-03-21T05:14:32.650Z,9.27
2018-03-21T05:17:34.661Z,7.43
2018-03-21T05:20:35.898Z,8.10
2018-03-21T05:23:37.935Z,8.20
2018-03-21T05:26:39.167Z,11.47
2018-03-21T05:29:40.464Z,11.07
2018-03-21T05:32:41.701Z,9.03
2018-03-21T05:35:42.916Z,13.20
2018-03-21T05:38:44.258Z,10.40
2018-03-21T05:41:45.467Z,12.23
2018-03-21T05:44:47.461Z,17.37
2018-03-21T05:47:48.693Z,9.50
2018-03-21T05:50:50.664Z,20.13
2018-03-21T05:53:51.898Z,11.67
2018-03-21T05:56:53.123Z,14.43
2018-03-21T05:59:54.451Z,10.27
2018-03-21T06:02:55.734Z,30.57
2018-03-21T06:05:57.718Z,15.50
2018-03-21T06:08:59.675Z,17.90
2018-03-21T06:12:00.899Z,22.03
2018-03-21T06:15:02.129Z,28.33
2018-03-21T06:18:03.412Z,15.10
2018-03-21T06:21:04.695Z,17.73
2018-03-21T06:24:05.964Z,20.07
2018-03-21T06:27:07.215Z,36.07
2018-03-21T06:30:08.436Z,16.23
2018-03-21T06:33:10.411Z,16.10
2018-03-21T06:36:12.394Z,17.13
2018-03-21T06:39:14.422Z,14.20
2018-03-21T06:42:15.666Z,26.90
2018-03-21T06:45:16.902Z,25.10
2018-03-21T06:48:18.875Z,26.13
2018-03-21T06:51:20.873Z,21.93
2018-03-21T06:54:22.108Z,13.90
2018-03-21T06:57:24.098Z,14.70
2018-03-21T07:00:26.109Z,15.73
2018-03-21T07:03:27.337Z,16.00
2018-03-21T07:06:29.326Z,30.20
2018-03-21T07:09:31.304Z,27.13
2018-03-21T07:12:33.275Z,17.10
2018-03-21T07:15:53.894Z,24.00
2018-03-21T07:18:55.153Z,19.13
2018-03-21T07:21:56.447Z,13.57
2018-03-21T07:24:57.740Z,21.17
2018-03-21T07:27:59.022Z,13.77
2018-03-21T07:31:00.271Z,24.93
2018-03-21T07:34:01.558Z,17.67
2018-03-21T07:37:02.864Z,19.43
2018-03-21T07:40:04.110Z,26.03
2018-03-21T07:43:05.355Z,32.33
2018-03-21T07:46:06.572Z,31.00
2018-03-21T07:49:07.843Z,24.77
2018-03-21T07:52:09.137Z,21.47
2018-03-21T07:55:10.364Z,23.57
2018-03-21T07:58:12.378Z,29.83
2018-03-21T08:01:13.629Z,28.23
2018-03-21T08:04:14.880Z,39.70
2018-03-21T08:07:16.134Z,17.07
2018-03-21T08:10:17.390Z,43.27
2018-03-21T08:13:18.678Z,51.33
2018-03-21T08:16:19.940Z,42.97
2018-03-21T08:19:21.214Z,36.93
2018-03-21T08:22:22.465Z,56.63
2018-03-21T08:25:23.751Z,50.00
2018-03-21T08:28:25.009Z,44.97
2018-03-21T08:31:26.271Z,39.43
2018-03-21T08:34:27.574Z,35.37
2018-03-21T08:37:29.582Z,50.23
2018-03-21T08:40:30.908Z,47.97
2018-03-21T08:43:32.159Z,49.20
2018-03-21T08:46:34.171Z,63.27
2018-03-21T08:49:35.404Z,59.80
2018-03-21T08:52:36.638Z,46.20
2018-03-21T08:55:37.941Z,62.83
2018-03-21T08:58:39.158Z,76.00
2018-03-21T09:01:40.392Z,53.90
2018-03-21T09:04:41.676Z,72.33
2018-03-21T09:07:42.929Z,69.93
2018-03-21T09:10:44.252Z,65.30
2018-03-21T09:13:45.609Z,74.97
2018-03-21T09:16:46.832Z,60.00
2018-03-21T09:19:48.072Z,71.93
2018-03-21T09:22:49.342Z,60.43
2018-03-21T09:25:50.599Z,65.80
2018-03-21T09:28:51.828Z,55.30
2018-03-21T09:31:53.078Z,59.03
2018-03-21T09:34:54.351Z,72.73
2018-03-21T09:37:55.641Z,75.33
2018-03-21T09:40:56.915Z,62.70
2018-03-21T09:43:58.147Z,57.80
2018-03-21T09:46:59.485Z,88.43
2018-03-21T09:50:00.745Z,81.40
2018-03-21T09:53:02.029Z,71.57
2018-03-21T09:56:03.301Z,94.10
2018-03-21T09:59:04.546Z,95.47
2018-03-21T10:02:05.837Z,86.20
2018-03-21T10:05:07.824Z,88.93
2018-03-21T10:08:09.811Z,71.47
2018-03-21T10:11:11.787Z,84.80
2018-03-21T10:14:13.767Z,93.43
2018-03-21T10:17:16.038Z,76.33
2018-03-21T10:20:17.310Z,89.77
2018-03-21T10:23:19.308Z,86.70
2018-03-21T10:26:20.551Z,60.80
2018-03-21T10:29:22.563Z,69.90
2018-03-21T10:32:23.759Z,59.33
2018-03-21T10:35:25.024Z,59.40
2018-03-21T10:38:26.282Z,68.60
2018-03-21T10:41:27.496Z,63.77
2018-03-21T10:44:29.507Z,73.43
2018-03-21T10:47:30.792Z,67.30
2018-03-21T10:50:32.022Z,65.03
2018-03-21T10:53:33.287Z,83.17
2018-03-21T10:56:34.499Z,84.30
2018-03-21T10:59:35.755Z,72.33
2018-03-21T11:02:43.295Z,74.37
2018-03-21T11:05:45.280Z,83.33
2018-03-21T11:08:47.244Z,110.13
2018-03-21T11:11:48.488Z,94.10
2018-03-21T11:14:49.730Z,102.20
2018-03-21T11:17:50.947Z,85.03
2018-03-21T11:20:52.934Z,87.33
2018-03-21T11:23:54.910Z,90.67
2018-03-21T11:26:56.868Z,95.70
2018-03-21T11:29:58.127Z,93.93
2018-03-21T11:32:59.386Z,98.30
2018-03-21T11:36:00.618Z,109.93
2018-03-21T11:39:01.925Z,106.20
2018-03-21T11:42:03.130Z,91.80
2018-03-21T11:45:04.404Z,92.97
2018-03-21T11:48:05.622Z,112.77
2018-03-21T11:51:07.599Z,106.63
2018-03-21T11:54:09.626Z,99.93
2018-03-21T11:57:10.854Z,84.90
2018-03-21T12:00:12.656Z,72.77
2018-03-21T12:03:13.904Z,80.10
2018-03-21T12:06:15.142Z,91.80
2018-03-21T12:09:17.151Z,73.93
2018-03-21T12:12:18.390Z,87.23
2018-03-21T12:15:20.401Z,69.47
2018-03-21T12:18:21.627Z,80.00
2018-03-21T12:21:23.630Z,62.33
2018-03-21T12:24:24.857Z,68.80
2018-03-21T12:27:26.121Z,68.17
2018-03-21T12:30:27.385Z,70.90
2018-03-21T12:33:28.624Z,61.50
2018-03-21T12:36:29.893Z,73.07
2018-03-21T12:39:31.145Z,63.03
2018-03-21T12:42:32.365Z,45.83
2018-03-21T12:45:33.584Z,62.70
2018-03-21T12:48:34.826Z,51.40
2018-03-21T12:51:36.102Z,54.07
2018-03-21T12:54:37.363Z,56.37
2018-03-21T12:57:38.590Z,61.47
2018-03-21T13:00:46.727Z,47.07
2018-03-21T13:03:47.954Z,58.67
2018-03-21T13:06:49.924Z,60.83
2018-03-21T13:09:51.138Z,60.83
2018-03-21T13:12:52.376Z,55.67
2018-03-21T13:15:53.587Z,54.10
2018-03-21T13:18:54.845Z,48.20
2018-03-21T13:21:56.072Z,55.97
2018-03-21T13:24:57.300Z,51.37
2018-03-21T13:27:59.283Z,46.57
2018-03-21T13:31:01.286Z,50.70
2018-03-21T13:34:02.574Z,41.60
2018-03-21T13:37:03.820Z,48.23
2018-03-21T13:40:05.086Z,54.30
2018-03-21T13:43:06.304Z,44.47
2018-03-21T13:46:07.554Z,52.40
2018-03-21T13:49:08.822Z,57.73
2018-03-21T13:52:10.070Z,50.93
2018-03-21T13:55:11.317Z,63.50
2018-03-21T13:58:12.559Z,45.20
2018-03-21T14:01:13.800Z,47.33
2018-03-21T14:04:15.839Z,52.17
2018-03-21T14:07:17.058Z,44.93
2018-03-21T14:10:18.301Z,48.87
2018-03-21T14:13:20.321Z,52.80
2018-03-21T14:16:21.651Z,43.50
2018-03-21T14:19:23.645Z,41.73
2018-03-21T14:22:24.868Z,44.57
2018-03-21T14:25:26.146Z,42.77
2018-03-21T14:28:28.131Z,40.40
2018-03-21T14:31:30.106Z,45.57
2018-03-21T14:34:31.455Z,41.50
2018-03-21T14:37:32.721Z,51.90
2018-03-21T14:40:33.972Z,38.90
2018-03-21T14:43:35.216Z,36.57
2018-03-21T14:46:36.438Z,31.27
2018-03-21T14:49:38.488Z,36.13
2018-03-21T14:52:39.676Z,42.33
2018-03-21T14:55:41.705Z,35.57
2018-03-21T14:58:43.033Z,44.93
2018-03-21T15:01:45.086Z,33.90
2018-03-21T15:04:46.344Z,38.70
2018-03-21T15:07:47.591Z,41.90
2018-03-21T15:10:48.862Z,31.30
2018-03-21T15:13:50.099Z,36.03
2018-03-21T15:16:51.361Z,45.00
2018-03-21T15:19:52.663Z,43.33
2018-03-21T15:22:53.918Z,42.47
2018-03-21T15:25:55.221Z,39.87
2018-03-21T15:28:56.477Z,50.27
2018-03-21T15:31:58.516Z,40.50
2018-03-21T15:34:59.790Z,38.13
2018-03-21T15:38:01.163Z,47.63
2018-03-21T15:41:02.415Z,48.33
2018-03-21T15:44:03.679Z,43.13
2018-03-21T15:47:04.954Z,50.27
2018-03-21T15:50:06.168Z,43.80
2018-03-21T15:53:07.400Z,46.57
2018-03-21T15:56:09.395Z,46.83
2018-03-21T15:59:10.715Z,39.07
2018-03-21T16:02:11.976Z,44.40
2018-03-21T16:05:13.230Z,41.40
2018-03-21T16:08:14.498Z,48.50
2018-03-21T16:11:16.510Z,42.20
2018-03-21T16:14:17.867Z,41.67
2018-03-21T16:17:19.115Z,41.63
2018-03-21T16:20:20.378Z,44.77
2018-03-21T16:23:21.630Z,42.83
2018-03-21T16:26:22.859Z,36.23
2018-03-21T16:29:24.174Z,41.73
2018-03-21T16:32:25.422Z,38.40
2018-03-21T16:35:26.687Z,39.87
2018-03-21T16:38:27.950Z,30.90
2018-03-21T16:41:29.233Z,56.60
2018-03-21T16:44:30.474Z,38.50
2018-03-21T16:47:31.742Z,37.30
2018-03-21T16:50:32.968Z,33.00
2018-03-21T16:53:34.221Z,42.50
2018-03-21T16:56:35.714Z,45.67
2018-03-21T16:59:36.956Z,51.70
2018-03-21T17:02:38.220Z,50.87
2018-03-21T17:05:39.490Z,41.23
2018-03-21T17:08:40.778Z,53.03
2018-03-21T17:11:42.037Z,45.93
2018-03-21T17:14:43.274Z,41.77
2018-03-21T17:17:44.521Z,42.23
2018-03-21T17:20:46.507Z,37.17
2018-03-21T17:23:47.758Z,36.47
2018-03-21T17:26:49.753Z,32.57
2018-03-21T17:29:50.964Z,45.40
2018-03-21T17:32:52.235Z,42.93
2018-03-21T17:35:53.472Z,37.40
2018-03-21T17:38:55.006Z,40.80
2018-03-21T17:41:56.364Z,39.20
2018-03-21T17:44:58.503Z,48.20
2018-03-21T17:48:00.734Z,44.80
2018-03-21T17:51:05.265Z,46.90
2018-03-21T17:54:09.100Z,46.27
2018-03-21T17:57:11.090Z,42.67
2018-03-21T18:00:13.148Z,32.90
2018-03-21T18:03:15.507Z,31.53
2018-03-21T18:06:17.216Z,40.40
2018-03-21T18:09:18.522Z,45.23
2018-03-21T18:12:20.284Z,38.27
2018-03-21T18:15:22.431Z,33.40
2018-03-21T18:18:24.567Z,36.73
2018-03-21T18:21:26.096Z,36.40
2018-03-21T18:24:29.749Z,36.50
2018-03-21T18:27:31.033Z,38.27
2018-03-21T18:30:32.274Z,37.50
2018-03-21T18:33:33.551Z,35.77
2018-03-21T18:36:35.350Z,37.67
2018-03-21T18:39:37.394Z,32.00
2018-03-21T18:42:38.687Z,39.87
2018-03-21T18:45:39.973Z,29.40
2018-03-21T18:48:41.339Z,31.67
2018-03-21T18:51:43.419Z,20.90
2018-03-21T18:54:44.680Z,32.03
2018-03-21T18:57:45.943Z,33.97
2018-03-21T19:00:47.171Z,145.73
2018-03-21T19:03:48.410Z,24.80
2018-03-21T19:06:49.804Z,26.30
2018-03-21T19:09:51.068Z,25.77
2018-03-21T19:12:52.324Z,25.67
2018-03-21T19:15:53.608Z,27.63
2018-03-21T19:18:56.066Z,34.50
2018-03-21T19:21:57.462Z,35.30
2018-03-21T19:24:59.490Z,26.27
2018-03-21T19:28:00.766Z,20.00
2018-03-21T19:31:02.623Z,23.00
2018-03-21T19:34:04.925Z,27.20
2018-03-21T19:37:07.638Z,33.13
2018-03-21T19:40:10.337Z,32.50
2018-03-21T19:43:12.031Z,18.47
2018-03-21T19:46:13.294Z,23.73
2018-03-21T19:49:14.948Z,17.47
2018-03-21T19:52:18.763Z,23.50
2018-03-21T19:55:20.156Z,26.03
2018-03-21T19:58:21.562Z,25.83
2018-03-21T20:01:22.876Z,16.00
2018-03-21T20:04:25.100Z,34.33
2018-03-21T20:07:28.086Z,24.60
2018-03-21T20:10:30.012Z,20.17
2018-03-21T20:13:32.589Z,17.70
2018-03-21T20:16:33.823Z,18.13
2018-03-21T20:19:35.119Z,24.20
2018-03-21T20:22:38.658Z,25.67
2018-03-21T20:25:40.403Z,20.83
2018-03-21T20:28:41.874Z,17.37
2018-03-21T20:31:43.300Z,23.33
2018-03-21T20:34:44.729Z,26.70
2018-03-21T20:37:46.202Z,27.67
2018-03-21T20:40:48.463Z,21.30
2018-03-21T20:43:51.122Z,18.03
2018-03-21T20:46:52.390Z,16.97
2018-03-21T20:49:54.316Z,21.10
2018-03-21T20:52:56.550Z,25.53
2018-03-21T20:55:58.611Z,20.00
2018-03-21T20:59:01.013Z,26.27
2018-03-21T21:02:02.947Z,22.23
2018-03-21T21:05:04.921Z,17.07
2018-03-21T21:08:06.577Z,17.33
2018-03-21T21:11:08.158Z,20.23
2018-03-21T21:14:10.624Z,18.33
2018-03-21T21:17:11.914Z,22.80
2018-03-21T21:20:13.863Z,27.70
2018-03-21T21:23:15.283Z,29.53
2018-03-21T21:26:18.251Z,31.70
2018-03-21T21:29:21.814Z,23.23
2018-03-21T21:32:23.084Z,25.13
2018-03-21T21:35:24.743Z,22.77
2018-03-21T21:38:27.409Z,33.90
2018-03-21T21:41:30.351Z,23.07
2018-03-21T21:44:32.008Z,26.13
2018-03-21T21:47:35.653Z,26.70
2018-03-21T21:50:38.168Z,28.37
2018-03-21T21:53:41.345Z,22.70
2018-03-21T21:56:42.655Z,20.50
2018-03-21T21:59:44.878Z,23.70
2018-03-21T22:02:46.218Z,24.90
2018-03-21T22:05:48.881Z,27.63
2018-03-21T22:08:51.291Z,32.43
2018-03-21T22:12:55.089Z,26.40
2018-03-21T22:15:57.132Z,19.73
2018-03-21T22:18:58.505Z,29.17
2018-03-21T22:22:00.591Z,19.83
2018-03-21T22:25:02.711Z,26.73
2018-03-21T22:28:04.238Z,25.33
2018-03-21T22:31:05.530Z,27.80
2018-03-21T22:34:06.827Z,19.00
2018-03-21T22:37:08.529Z,18.33
2018-03-21T22:40:09.813Z,23.70
2018-03-21T22:43:11.841Z,26.30
2018-03-21T22:46:13.156Z,26.97
2018-03-21T22:49:15.166Z,31.37
2018-03-21T22:52:16.429Z,25.23
2018-03-21T22:55:17.741Z,29.67
2018-03-21T22:58:19.076Z,25.50
2018-03-21T23:01:20.350Z,24.77
2018-03-21T23:04:21.592Z,26.50
2018-03-21T23:07:22.854Z,20.00
2018-03-21T23:10:24.101Z,29.77
2018-03-21T23:13:25.384Z,26.43
2018-03-21T23:16:26.651Z,31.60
2018-03-21T23:19:27.941Z,46.40
2018-03-21T23:22:29.214Z,31.67
2018-03-21T23:25:30.486Z,22.63
2018-03-21T23:28:31.845Z,31.77
2018-03-21T23:31:33.117Z,31.90
2018-03-21T23:34:34.364Z,18.37
2018-03-21T23:37:35.618Z,22.27
2018-03-21T23:40:36.853Z,37.80
2018-03-21T23:43:38.127Z,30.10
2018-03-21T23:46:39.355Z,27.67
2018-03-21T23:49:41.343Z,25.90
2018-03-21T23:52:42.604Z,32.30
2018-03-21T23:55:43.840Z,23.40
2018-03-21T23:58:45.075Z,47.17
